El Colorado, Argentina
Current Conditions -  °F | °C
As of 3:00 PM on Tuesday 21 Oct 2014 (Local Time) from SARF Reporting Station
Clear Clear  
Wind Chill: 32°   Ceiling: Unl
Heat Index: 32°   Visibility: 4mi
Dew Point: 10°   Wind: 12mph
Humidity: 26%   Direction: 160°SSE
Pressure: 30"   Gusts: NA
Location:  26.3°S, 59.37°W
Report Text: SARF 211800Z 16010KT 7000 NSC 32/10 Q1016
Loading
Personal Weather Stations






























Interactive Weather Map
Tropical Storm Tracking
New forecast layout! Learn more

10-Day Weather Forecast

Advertisements
Track Severe Weather on mobile